Time;durP1;ratioP1;P1;durP2;ratioP2;P2;SDS_P1;SDS_P2;PMS_P1;PMS_P2;Temp;Humidity;BMP_temperature;BMP_pressure;BME280_temperature;BME280_humidity;BME280_pressure;Samples;Min_cycle;Max_cycle;Signal;HPM_P1;HPM_P2
2021/10/06 00:02:14;;;;;;;2.63;0.80;;;10.40;29.70;;;;;;5070921;28;20045;-69
2021/10/06 00:04:42;;;;;;;2.78;0.98;;;10.50;29.70;;;;;;5046488;28;20052;-69
2021/10/06 00:07:14;;;;;;;3.80;0.85;;;10.50;30.00;;;;;;5072206;28;20581;-69
2021/10/06 00:09:42;;;;;;;3.85;1.20;;;10.50;30.20;;;;;;5072735;28;20086;-69
2021/10/06 00:12:10;;;;;;;3.83;1.05;;;10.50;29.20;;;;;;5069804;28;20404;-69
2021/10/06 00:14:41;;;;;;;4.28;1.80;;;10.50;28.30;;;;;;5073058;28;20044;-68
2021/10/06 00:17:24;;;;;;;3.20;1.20;;;10.60;29.10;;;;;;5079386;28;20056;-68
2021/10/06 00:19:58;;;;;;;1.88;0.90;;;10.60;28.40;;;;;;5073679;28;20101;-69
2021/10/06 00:22:29;;;;;;;2.05;0.95;;;10.60;28.80;;;;;;5067269;28;20040;-69
2021/10/06 00:24:57;;;;;;;2.35;0.80;;;10.70;27.30;;;;;;5070480;28;20105;-68
2021/10/06 00:27:28;;;;;;;4.07;0.98;;;10.80;27.10;;;;;;5069373;28;20044;-68
2021/10/06 00:29:56;;;;;;;1.20;0.70;;;10.80;27.70;;;;;;5071899;28;20048;-68
2021/10/06 00:32:26;;;;;;;3.25;0.80;;;10.70;28.00;;;;;;5073405;28;20052;-69
2021/10/06 00:34:58;;;;;;;3.47;1.15;;;10.80;27.10;;;;;;5071930;28;20048;-69
2021/10/06 00:37:26;;;;;;;4.47;1.10;;;10.80;26.00;;;;;;5075436;28;20054;-68
2021/10/06 00:39:54;;;;;;;4.57;0.90;;;10.80;26.70;;;;;;5074546;28;20462;-69
2021/10/06 00:42:24;;;;;;;2.05;0.85;;;10.70;26.70;;;;;;5074600;28;20080;-69
2021/10/06 00:44:57;;;;;;;2.85;0.90;;;10.70;27.00;;;;;;5069134;28;20147;-69
2021/10/06 00:47:27;;;;;;;3.22;0.95;;;10.60;28.20;;;;;;5074240;28;20114;-69
2021/10/06 00:49:55;;;;;;;4.78;0.80;;;10.60;27.30;;;;;;5073593;28;20056;-70
2021/10/06 00:52:25;;;;;;;6.63;1.30;;;10.50;27.90;;;;;;5069984;28;20041;-69
2021/10/06 00:54:54;;;;;;;2.50;1.27;;;10.50;28.70;;;;;;5070554;28;20055;-69
2021/10/06 00:57:22;;;;;;;3.88;1.08;;;10.40;29.10;;;;;;5070775;28;20676;-69
2021/10/06 00:59:53;;;;;;;4.53;1.00;;;10.30;29.10;;;;;;5072839;28;20063;-69
2021/10/06 01:02:21;;;;;;;2.10;0.93;;;10.30;30.00;;;;;;5059524;28;20139;-69
2021/10/06 01:04:51;;;;;;;4.60;1.75;;;10.30;31.00;;;;;;5067961;28;20039;-69
2021/10/06 01:07:23;;;;;;;2.88;0.75;;;10.20;31.40;;;;;;5075182;28;20044;-69
2021/10/06 01:09:54;;;;;;;3.83;1.00;;;10.20;31.90;;;;;;5073720;28;20048;-68
2021/10/06 01:12:23;;;;;;;4.82;0.73;;;10.20;31.10;;;;;;5067380;28;20040;-68
2021/10/06 01:14:52;;;;;;;3.95;1.20;;;10.20;30.60;;;;;;5068290;28;20040;-68
2021/10/06 01:17:20;;;;;;;2.42;1.33;;;10.20;31.60;;;;;;5071759;28;20063;-68
2021/10/06 01:19:48;;;;;;;1.90;0.90;;;10.20;31.60;;;;;;5070744;28;20055;-69
2021/10/06 01:22:17;;;;;;;3.83;0.93;;;10.10;32.20;;;;;;5070769;28;20048;-69
2021/10/06 01:24:46;;;;;;;3.40;1.10;;;10.00;33.00;;;;;;5069947;28;20075;-69
2021/10/06 01:27:14;;;;;;;2.90;1.05;;;10.00;33.20;;;;;;5075484;28;20280;-69
2021/10/06 01:29:43;;;;;;;3.50;1.20;;;10.00;33.60;;;;;;5079363;28;20074;-69
2021/10/06 01:32:13;;;;;;;3.17;1.00;;;9.90;35.40;;;;;;5076113;28;20044;-70
2021/10/06 01:34:42;;;;;;;4.25;1.30;;;9.90;36.80;;;;;;5074005;28;20036;-69
2021/10/06 01:37:13;;;;;;;2.35;0.90;;;9.80;37.70;;;;;;5079640;28;20478;-70
2021/10/06 01:39:42;;;;;;;3.30;1.05;;;9.80;37.80;;;;;;5077074;28;20047;-68
2021/10/06 01:42:10;;;;;;;2.20;1.02;;;9.70;37.80;;;;;;5074521;28;20120;-68
2021/10/06 01:44:40;;;;;;;2.67;1.00;;;9.70;38.40;;;;;;5070926;28;20404;-68
2021/10/06 01:47:08;;;;;;;5.15;1.45;;;9.70;38.90;;;;;;5075907;28;20419;-68
2021/10/06 01:49:42;;;;;;;3.97;1.55;;;9.70;38.40;;;;;;5073111;28;20078;-69
2021/10/06 01:52:10;;;;;;;3.42;1.13;;;9.70;38.10;;;;;;5076608;28;20045;-69
2021/10/06 01:54:39;;;;;;;3.65;1.00;;;9.90;37.90;;;;;;5067391;28;20129;-68
2021/10/06 01:57:08;;;;;;;4.35;1.00;;;10.10;35.50;;;;;;5073570;28;20048;-68
2021/10/06 01:59:36;;;;;;;3.20;1.33;;;10.10;35.10;;;;;;5078060;28;20055;-69
2021/10/06 02:02:07;;;;;;;3.08;1.30;;;10.10;35.30;;;;;;5074681;28;20055;-69
2021/10/06 02:04:36;;;;;;;1.65;0.90;;;10.10;35.90;;;;;;5070776;28;20073;-69
2021/10/06 02:07:05;;;;;;;3.20;1.40;;;10.10;35.80;;;;;;5076178;28;20508;-69
2021/10/06 02:09:33;;;;;;;3.17;1.70;;;10.10;35.40;;;;;;5069963;28;20055;-69
2021/10/06 02:12:01;;;;;;;2.95;1.30;;;10.00;35.90;;;;;;5073651;28;20131;-69
2021/10/06 02:14:31;;;;;;;2.75;1.30;;;10.00;37.00;;;;;;5069593;28;20499;-69
2021/10/06 02:17:00;;;;;;;3.40;1.20;;;9.90;37.80;;;;;;5074189;28;20063;-69
2021/10/06 02:19:31;;;;;;;2.47;1.20;;;9.90;36.40;;;;;;5073532;28;20041;-69
2021/10/06 02:22:00;;;;;;;3.63;1.50;;;9.90;37.00;;;;;;5074759;28;20196;-69
2021/10/06 02:24:31;;;;;;;5.00;1.15;;;9.90;36.70;;;;;;5070551;28;20266;-69
2021/10/06 02:26:59;;;;;;;2.55;1.00;;;9.90;36.50;;;;;;5074331;28;20275;-69
2021/10/06 02:29:28;;;;;;;1.85;1.15;;;9.90;36.60;;;;;;5075691;28;20048;-69
2021/10/06 02:31:59;;;;;;;7.80;1.52;;;9.90;36.80;;;;;;5075841;28;20044;-69
2021/10/06 02:34:27;;;;;;;4.65;1.40;;;9.90;37.70;;;;;;5071835;28;20044;-69
2021/10/06 02:36:55;;;;;;;2.47;1.45;;;9.80;37.80;;;;;;5073296;28;20779;-70
2021/10/06 02:39:26;;;;;;;4.97;1.42;;;9.80;38.30;;;;;;5072142;28;20040;-68
2021/10/06 02:41:54;;;;;;;3.53;1.48;;;9.80;37.80;;;;;;5074876;28;20049;-68
2021/10/06 02:44:25;;;;;;;5.63;1.55;;;9.70;39.30;;;;;;5074893;28;20075;-69
2021/10/06 02:46:56;;;;;;;4.60;2.15;;;9.80;39.70;;;;;;5069559;28;20052;-69
2021/10/06 02:49:25;;;;;;;4.97;2.00;;;10.00;39.40;;;;;;5071856;28;20814;-70
2021/10/06 02:51:55;;;;;;;4.75;2.60;;;10.00;38.10;;;;;;5064281;28;20135;-69
2021/10/06 02:54:27;;;;;;;9.18;2.50;;;10.00;37.10;;;;;;5070764;28;20044;-69
2021/10/06 02:57:01;;;;;;;3.40;2.42;;;10.10;37.10;;;;;;5074306;28;20052;-69
2021/10/06 02:59:31;;;;;;;3.10;1.60;;;10.20;36.60;;;;;;5072463;28;20059;-69
2021/10/06 03:02:03;;;;;;;3.70;1.90;;;10.10;36.00;;;;;;5074066;28;20227;-69
2021/10/06 03:04:32;;;;;;;3.78;1.70;;;10.10;35.20;;;;;;5069457;28;20046;-69
2021/10/06 03:07:00;;;;;;;4.05;1.58;;;10.10;36.80;;;;;;5071711;28;20071;-70
2021/10/06 03:09:32;;;;;;;4.03;1.63;;;10.10;36.50;;;;;;5072469;28;20503;-69
2021/10/06 03:12:04;;;;;;;2.40;1.20;;;10.00;35.80;;;;;;5069132;28;20040;-69
2021/10/06 03:14:34;;;;;;;3.78;1.40;;;9.90;36.90;;;;;;5073979;28;20055;-69
2021/10/06 03:17:04;;;;;;;3.15;1.23;;;9.90;37.90;;;;;;5070332;28;20045;-69
2021/10/06 03:19:33;;;;;;;5.15;1.33;;;10.00;37.60;;;;;;5075100;28;20143;-67
2021/10/06 03:22:03;;;;;;;3.30;1.45;;;10.00;37.60;;;;;;5071590;28;20036;-69
2021/10/06 03:24:31;;;;;;;2.35;1.10;;;10.00;37.80;;;;;;5068476;28;20039;-67
2021/10/06 03:26:59;;;;;;;2.85;1.55;;;10.10;37.10;;;;;;5073538;28;20095;-68
2021/10/06 03:29:32;;;;;;;5.40;2.00;;;10.20;37.20;;;;;;5072569;28;20105;-68
2021/10/06 03:32:00;;;;;;;4.63;2.10;;;10.20;36.00;;;;;;5074217;28;20102;-68
2021/10/06 03:34:31;;;;;;;3.70;2.15;;;10.20;35.20;;;;;;5070631;28;20036;-68
2021/10/06 03:37:01;;;;;;;4.82;1.92;;;10.20;34.60;;;;;;5072397;28;20135;-68
2021/10/06 03:39:30;;;;;;;4.53;1.92;;;10.20;34.40;;;;;;5072499;28;20058;-68
2021/10/06 03:41:58;;;;;;;5.80;1.90;;;10.20;33.60;;;;;;5074306;28;20047;-68
2021/10/06 03:44:31;;;;;;;3.35;2.10;;;10.30;32.80;;;;;;5067044;28;20040;-68
2021/10/06 03:46:59;;;;;;;5.47;2.35;;;10.20;32.20;;;;;;5072740;28;20632;-68
2021/10/06 03:49:30;;;;;;;6.97;2.40;;;10.20;33.00;;;;;;5075919;28;20052;-68
2021/10/06 03:51:58;;;;;;;5.30;2.05;;;10.30;32.50;;;;;;5056308;28;20127;-68
2021/10/06 03:54:28;;;;;;;4.60;2.10;;;10.20;32.50;;;;;;5068273;28;20052;-68
2021/10/06 03:56:56;;;;;;;3.55;1.80;;;10.10;34.00;;;;;;5070081;28;20036;-68
2021/10/06 03:59:27;;;;;;;4.32;2.33;;;10.10;34.90;;;;;;5066524;28;20037;-69
2021/10/06 04:02:00;;;;;;;3.08;2.10;;;10.10;35.10;;;;;;5050574;28;21125;-69
2021/10/06 04:04:29;;;;;;;6.07;2.20;;;10.10;35.10;;;;;;5051408;28;20045;-69
2021/10/06 04:06:57;;;;;;;6.47;3.05;;;10.00;35.00;;;;;;5052751;28;20229;-69
2021/10/06 04:09:25;;;;;;;5.57;2.30;;;10.00;34.00;;;;;;5056608;28;20101;-69
2021/10/06 04:11:57;;;;;;;6.22;1.92;;;10.00;34.60;;;;;;5051515;28;20519;-68
2021/10/06 04:14:25;;;;;;;6.25;1.67;;;10.10;34.80;;;;;;5052157;28;20138;-69
2021/10/06 04:16:58;;;;;;;3.28;1.52;;;10.10;34.60;;;;;;5052158;28;20048;-69
2021/10/06 04:19:26;;;;;;;5.85;1.45;;;10.10;34.40;;;;;;5053469;28;20612;-69
2021/10/06 04:21:54;;;;;;;6.22;1.65;;;10.10;34.30;;;;;;5070244;28;20052;-69
2021/10/06 04:24:22;;;;;;;3.75;1.20;;;10.10;34.00;;;;;;5048804;28;20056;-69
2021/10/06 04:26:50;;;;;;;5.32;1.80;;;10.20;33.00;;;;;;5069984;28;20039;-69
2021/10/06 04:29:19;;;;;;;4.53;1.40;;;10.20;33.20;;;;;;5073022;28;20128;-69
2021/10/06 04:31:48;;;;;;;5.10;1.33;;;10.20;33.00;;;;;;5073367;28;20036;-69
2021/10/06 04:34:16;;;;;;;3.60;1.23;;;10.20;32.90;;;;;;5073015;28;20040;-69
2021/10/06 04:36:46;;;;;;;2.50;1.35;;;10.20;33.00;;;;;;5069968;28;20131;-69
2021/10/06 04:39:17;;;;;;;3.08;1.15;;;10.30;33.00;;;;;;5072409;28;20083;-69
2021/10/06 04:41:50;;;;;;;5.80;1.45;;;10.30;33.50;;;;;;5069597;28;20063;-69
2021/10/06 04:44:22;;;;;;;4.53;1.38;;;10.30;33.00;;;;;;5068043;28;20145;-68
2021/10/06 04:46:51;;;;;;;3.40;1.52;;;10.40;31.30;;;;;;5069146;28;20098;-68
2021/10/06 04:49:24;;;;;;;2.63;1.42;;;10.50;31.30;;;;;;5072018;28;20487;-69
2021/10/06 04:51:52;;;;;;;7.18;1.30;;;10.50;31.10;;;;;;5074127;28;20499;-69
2021/10/06 04:54:20;;;;;;;3.97;1.27;;;10.50;30.40;;;;;;5067735;28;20054;-68
2021/10/06 04:56:48;;;;;;;5.63;1.88;;;10.50;30.50;;;;;;5071948;28;20119;-68
2021/10/06 04:59:18;;;;;;;5.90;1.65;;;10.60;30.10;;;;;;5074416;28;20131;-69
2021/10/06 05:01:48;;;;;;;3.78;1.35;;;10.50;31.10;;;;;;5075282;28;20457;-68
2021/10/06 05:04:19;;;;;;;3.92;1.40;;;10.50;30.70;;;;;;5071935;28;21274;-68
2021/10/06 05:06:47;;;;;;;5.18;1.70;;;10.50;30.10;;;;;;5071392;28;20143;-69
2021/10/06 05:09:19;;;;;;;2.85;1.73;;;10.50;30.70;;;;;;5078515;28;20041;-69
2021/10/06 05:11:50;;;;;;;3.63;1.63;;;10.40;31.50;;;;;;5079805;28;20331;-69
2021/10/06 05:14:22;;;;;;;5.07;1.60;;;10.50;31.60;;;;;;5074634;28;20110;-69
2021/10/06 05:16:53;;;;;;;4.80;1.70;;;10.50;31.10;;;;;;5074290;28;20414;-69
2021/10/06 05:19:24;;;;;;;5.00;1.10;;;10.50;30.80;;;;;;5064557;28;20097;-69
2021/10/06 05:21:57;;;;;;;4.53;1.58;;;10.40;31.70;;;;;;5073994;28;20380;-69
2021/10/06 05:24:25;;;;;;;2.80;1.40;;;10.40;32.10;;;;;;5069161;28;20575;-69
2021/10/06 05:26:55;;;;;;;4.03;1.40;;;10.50;32.70;;;;;;5072332;28;20047;-69
2021/10/06 05:29:27;;;;;;;3.10;1.42;;;10.50;31.70;;;;;;5075829;28;20075;-69
2021/10/06 05:31:59;;;;;;;7.22;1.60;;;10.50;31.40;;;;;;5076553;28;20131;-68
2021/10/06 05:34:28;;;;;;;3.53;1.20;;;10.50;31.30;;;;;;5071459;28;20096;-69
2021/10/06 05:36:58;;;;;;;4.28;1.50;;;10.60;30.70;;;;;;5074520;28;20044;-68
2021/10/06 05:39:30;;;;;;;4.43;1.40;;;10.50;29.50;;;;;;5075282;28;20037;-68
2021/10/06 05:41:58;;;;;;;3.03;1.70;;;10.50;29.20;;;;;;5074817;28;20083;-68
2021/10/06 05:44:30;;;;;;;6.70;2.38;;;10.50;29.20;;;;;;5071797;28;20059;-69
2021/10/06 05:46:59;;;;;;;2.80;1.73;;;10.50;29.80;;;;;;5074765;28;20303;-68
2021/10/06 05:49:29;;;;;;;4.53;1.55;;;10.50;29.20;;;;;;5072656;28;20511;-67
2021/10/06 05:51:59;;;;;;;1.55;1.15;;;10.50;29.20;;;;;;5070744;28;20040;-68
2021/10/06 05:54:31;;;;;;;3.40;1.05;;;10.50;29.20;;;;;;5070847;28;20051;-69
2021/10/06 05:57:02;;;;;;;2.10;1.13;;;10.50;29.60;;;;;;5074557;28;20063;-68
2021/10/06 05:59:34;;;;;;;5.95;1.75;;;10.60;29.50;;;;;;5073479;28;20492;-69
2021/10/06 06:02:04;;;;;;;2.60;1.25;;;10.50;29.30;;;;;;5074298;28;20072;-68
2021/10/06 06:04:32;;;;;;;2.63;1.33;;;10.60;29.30;;;;;;5074097;28;20133;-68
2021/10/06 06:07:02;;;;;;;3.55;1.27;;;10.60;29.30;;;;;;5071141;28;20050;-68
2021/10/06 06:09:30;;;;;;;5.18;1.50;;;10.60;29.30;;;;;;5071808;28;20044;-68
2021/10/06 06:12:00;;;;;;;4.85;2.20;;;10.60;29.30;;;;;;5075447;28;20058;-69
2021/10/06 06:14:29;;;;;;;3.90;1.40;;;10.60;28.30;;;;;;5069058;28;20082;-68
2021/10/06 06:16:59;;;;;;;5.28;1.23;;;10.60;27.10;;;;;;5077838;28;20090;-68
2021/10/06 06:19:31;;;;;;;5.28;1.70;;;10.60;26.30;;;;;;5074345;28;20106;-69
2021/10/06 06:22:01;;;;;;;7.47;1.35;;;10.60;26.70;;;;;;5078251;28;20040;-68
2021/10/06 06:24:29;;;;;;;4.20;1.33;;;10.60;27.10;;;;;;5072785;28;20058;-68
2021/10/06 06:26:58;;;;;;;7.40;1.60;;;10.60;25.90;;;;;;5072720;28;20052;-68
2021/10/06 06:29:26;;;;;;;4.68;1.25;;;10.70;26.00;;;;;;5074947;28;20462;-69
2021/10/06 06:31:58;;;;;;;5.13;2.30;;;10.80;25.60;;;;;;5072205;28;20039;-68
2021/10/06 06:34:32;;;;;;;4.25;1.60;;;10.90;25.00;;;;;;5068644;28;20055;-69
2021/10/06 06:37:04;;;;;;;8.25;1.60;;;10.90;24.50;;;;;;5072350;28;20063;-68
2021/10/06 06:39:32;;;;;;;5.90;1.65;;;10.90;25.70;;;;;;5076896;28;20048;-67
2021/10/06 06:42:00;;;;;;;5.40;1.92;;;11.00;24.60;;;;;;5072946;28;20066;-67
2021/10/06 06:44:48;;;;;;;5.25;1.90;;;11.10;23.70;;;;;;5069208;28;20076;-68
2021/10/06 06:47:16;;;;;;;6.70;2.15;;;11.20;21.50;;;;;;5071997;28;20101;-68
2021/10/06 06:49:45;;;;;;;3.58;0.98;;;11.30;21.50;;;;;;5073882;28;20046;-69
2021/10/06 06:52:17;;;;;;;3.53;0.95;;;11.20;19.40;;;;;;5075877;28;20052;-69
2021/10/06 06:54:47;;;;;;;6.82;1.10;;;11.20;19.40;;;;;;5074416;28;20044;-69
2021/10/06 06:57:15;;;;;;;4.38;1.13;;;11.10;18.50;;;;;;5069513;28;20078;-68
2021/10/06 06:59:43;;;;;;;3.25;1.25;;;11.10;19.30;;;;;;5071292;28;20052;-68
2021/10/06 07:02:13;;;;;;;4.15;1.52;;;11.00;19.60;;;;;;5074489;28;20378;-68
2021/10/06 07:04:41;;;;;;;5.97;1.55;;;11.10;19.30;;;;;;5067392;28;20056;-69
2021/10/06 07:07:13;;;;;;;4.78;1.25;;;11.10;19.90;;;;;;5076646;28;20090;-69
2021/10/06 07:09:49;;;;;;;6.85;1.52;;;11.10;19.30;;;;;;5075638;28;20089;-67
2021/10/06 07:12:18;;;;;;;5.25;1.33;;;11.20;19.40;;;;;;5076779;28;20067;-68
2021/10/06 07:14:50;;;;;;;5.43;1.20;;;11.30;19.40;;;;;;5069184;28;20040;-69
2021/10/06 07:17:19;;;;;;;4.32;1.60;;;11.30;18.70;;;;;;5072396;28;20036;-68
2021/10/06 07:19:48;;;;;;;2.25;1.02;;;11.30;18.10;;;;;;5077128;28;20064;-67
2021/10/06 07:22:18;;;;;;;2.50;1.00;;;11.30;18.30;;;;;;5070494;28;20559;-66
2021/10/06 07:24:47;;;;;;;9.20;2.28;;;11.40;17.70;;;;;;5067269;28;20042;-67
2021/10/06 07:27:17;;;;;;;2.90;1.40;;;11.40;18.40;;;;;;5071566;28;20078;-67
2021/10/06 07:29:45;;;;;;;5.45;1.38;;;11.50;17.40;;;;;;5075903;28;20052;-66
2021/10/06 07:32:16;;;;;;;5.97;1.50;;;11.50;16.10;;;;;;5072270;28;20048;-67
2021/10/06 07:34:46;;;;;;;5.05;1.95;;;11.50;16.00;;;;;;5072857;28;20052;-67
2021/10/06 07:37:17;;;;;;;5.75;1.58;;;11.40;16.00;;;;;;5067639;28;20263;-67
2021/10/06 07:39:46;;;;;;;4.03;1.60;;;11.60;16.10;;;;;;5072123;28;20469;-67
2021/10/06 07:42:26;;;;;;;3.67;1.48;;;11.60;15.40;;;;;;5053488;28;20070;-65
2021/10/06 07:44:59;;;;;;;4.10;1.05;;;11.70;14.70;;;;;;5061901;28;20117;-67
2021/10/06 07:47:30;;;;;;;2.92;1.35;;;11.70;13.50;;;;;;5075054;28;20051;-66
2021/10/06 07:50:00;;;;;;;2.92;1.13;;;11.70;13.90;;;;;;5072888;28;20047;-67
2021/10/06 07:52:31;;;;;;;3.30;1.70;;;11.70;14.20;;;;;;5075462;28;20110;-67
2021/10/06 07:54:59;;;;;;;5.25;2.08;;;11.80;12.70;;;;;;5071898;28;20174;-66
2021/10/06 07:57:29;;;;;;;7.13;2.03;;;11.90;12.30;;;;;;5039246;28;20464;-66
2021/10/06 07:59:57;;;;;;;4.20;1.58;;;12.00;12.20;;;;;;5071888;28;20043;-67
2021/10/06 08:02:30;;;;;;;3.58;1.60;;;12.10;12.00;;;;;;5072565;28;20123;-66
2021/10/06 08:04:58;;;;;;;3.50;1.50;;;12.10;11.00;;;;;;5069348;28;20040;-66
2021/10/06 08:07:28;;;;;;;5.55;2.03;;;12.10;11.70;;;;;;5070749;28;20561;-67
2021/10/06 08:10:00;;;;;;;4.70;1.80;;;12.10;10.70;;;;;;5073981;28;20078;-66
2021/10/06 08:12:28;;;;;;;6.40;2.17;;;12.10;10.80;;;;;;5060549;28;20051;-67
2021/10/06 08:14:56;;;;;;;6.00;2.00;;;12.10;11.30;;;;;;5068112;28;20082;-66
2021/10/06 08:17:26;;;;;;;3.42;1.30;;;12.10;11.40;;;;;;5069904;28;20661;-66
2021/10/06 08:19:54;;;;;;;5.50;1.75;;;12.00;10.20;;;;;;5072924;28;20080;-67
2021/10/06 08:22:23;;;;;;;7.43;1.60;;;12.00;11.00;;;;;;5072673;28;20037;-67
2021/10/06 08:24:51;;;;;;;3.22;1.38;;;12.10;11.60;;;;;;5067834;28;20144;-67
2021/10/06 08:27:26;;;;;;;2.87;1.23;;;12.10;9.70;;;;;;5068186;28;20403;-67
2021/10/06 08:29:57;;;;;;;5.22;1.50;;;12.00;9.30;;;;;;5058460;28;20115;-66
2021/10/06 08:32:29;;;;;;;3.10;1.85;;;11.90;8.40;;;;;;5070283;28;20051;-66
2021/10/06 08:34:59;;;;;;;5.68;1.42;;;12.00;9.60;;;;;;5068536;28;20071;-67
2021/10/06 08:37:27;;;;;;;6.03;1.50;;;12.00;10.00;;;;;;5057268;28;20079;-66
2021/10/06 08:39:54;;;;;;;4.82;1.60;;;12.00;9.20;;;;;;5077444;28;20896;-66
2021/10/06 08:42:23;;;;;;;5.90;1.30;;;12.20;9.30;;;;;;5072161;28;20504;-67
2021/10/06 08:44:54;;;;;;;5.63;1.98;;;12.40;8.30;;;;;;5068530;28;20132;-66
2021/10/06 08:47:22;;;;;;;2.80;0.95;;;12.50;8.10;;;;;;5066808;28;20542;-66
2021/10/06 08:49:57;;;;;;;4.18;1.70;;;12.70;7.90;;;;;;5074800;28;20044;-66
2021/10/06 08:52:29;;;;;;;3.42;1.13;;;12.80;7.70;;;;;;5070120;28;20041;-67
2021/10/06 08:55:02;;;;;;;5.78;1.27;;;12.70;5.90;;;;;;5069158;28;20086;-66
2021/10/06 08:57:30;;;;;;;4.68;1.40;;;12.70;6.60;;;;;;5073985;28;20537;-66
2021/10/06 09:00:00;;;;;;;5.90;1.27;;;12.80;5.70;;;;;;5075656;28;20164;-67
2021/10/06 09:02:36;;;;;;;5.18;2.20;;;13.00;5.20;;;;;;5069370;28;20079;-66
2021/10/06 09:05:06;;;;;;;4.60;1.48;;;13.00;4.10;;;;;;5072632;28;20131;-65
2021/10/06 09:07:34;;;;;;;6.25;1.38;;;13.10;3.30;;;;;;5069885;28;20507;-66
2021/10/06 09:10:14;;;;;;;2.63;1.00;;;13.00;3.10;;;;;;5077930;28;20127;-66
2021/10/06 09:12:53;;;;;;;4.43;1.60;;;12.90;3.30;;;;;;5070351;28;20221;-67
2021/10/06 09:15:23;;;;;;;3.17;1.30;;;12.80;5.50;;;;;;5069448;28;20517;-68
2021/10/06 09:17:57;;;;;;;3.75;1.48;;;12.70;7.30;;;;;;5076078;28;20048;-67
2021/10/06 09:20:35;;;;;;;5.40;1.60;;;12.50;9.10;;;;;;5068092;28;20561;-66
2021/10/06 09:23:07;;;;;;;5.22;1.45;;;12.60;10.30;;;;;;5054429;28;20350;-67
2021/10/06 09:25:48;;;;;;;6.72;1.27;;;12.90;9.80;;;;;;5050736;28;20449;-67
2021/10/06 09:28:26;;;;;;;4.90;1.10;;;12.90;8.30;;;;;;5050744;28;20048;-66
2021/10/06 09:31:00;;;;;;;4.13;1.48;;;12.90;6.00;;;;;;5052140;28;20083;-67
2021/10/06 09:33:42;;;;;;;4.03;1.30;;;12.90;6.60;;;;;;5045492;28;20052;-67
2021/10/06 09:36:14;;;;;;;2.35;0.70;;;12.90;6.00;;;;;;5045570;28;20136;-68
2021/10/06 09:38:53;;;;;;;4.10;1.13;;;12.80;4.90;;;;;;5051745;28;20114;-67
2021/10/06 09:41:34;;;;;;;4.65;1.42;;;12.60;6.60;;;;;;5053502;28;20045;-66
2021/10/06 09:44:08;;;;;;;7.25;1.20;;;12.60;6.50;;;;;;5049219;28;20052;-66
2021/10/06 09:46:53;;;;;;;4.80;1.00;;;12.60;5.80;;;;;;5052667;28;20496;-67
2021/10/06 09:49:27;;;;;;;4.13;1.33;;;12.50;5.60;;;;;;5057893;28;20313;-67
2021/10/06 09:52:15;;;;;;;3.38;1.45;;;12.70;6.80;;;;;;5059501;28;20048;-65
2021/10/06 09:54:47;;;;;;;;;;;12.60;3.40;;;;;;5039635;28;20057;-66
2021/10/06 09:57:23;;;;;;;5.00;1.30;;;12.70;4.10;;;;;;5054329;28;19930;-67
2021/10/06 09:59:59;;;;;;;4.03;1.02;;;12.70;5.80;;;;;;5061473;28;20106;-66
2021/10/06 10:02:32;;;;;;;4.05;1.50;;;13.00;3.50;;;;;;5057541;28;20143;-67
2021/10/06 10:05:01;;;;;;;6.38;1.42;;;13.00;1.00;;;;;;5052719;28;20059;-67
2021/10/06 10:07:29;;;;;;;2.53;0.88;;;13.30;1.00;;;;;;5058201;28;20045;-67
2021/10/06 10:09:58;;;;;;;2.72;1.15;;;13.30;1.00;;;;;;5058797;28;20090;-68
2021/10/06 10:12:30;;;;;;;2.63;0.98;;;13.90;1.00;;;;;;5057827;28;20404;-67
2021/10/06 10:15:00;;;;;;;4.05;0.90;;;14.20;1.00;;;;;;5050821;28;20321;-67
2021/10/06 10:17:30;;;;;;;2.72;0.90;;;13.70;1.00;;;;;;5053347;28;20075;-67
2021/10/06 10:20:00;;;;;;;4.72;0.90;;;13.80;1.00;;;;;;5057270;28;20047;-67
2021/10/06 10:22:37;;;;;;;3.88;1.02;;;13.70;1.00;;;;;;5065995;28;20041;-67
2021/10/06 10:25:18;;;;;;;3.00;0.85;;;13.60;1.00;;;;;;5072674;28;20500;-68
2021/10/06 10:28:00;;;;;;;5.53;1.00;;;13.50;1.00;;;;;;5070423;28;20043;-67
2021/10/06 10:30:29;;;;;;;6.18;1.05;;;13.20;1.00;;;;;;5057096;28;21216;-68
2021/10/06 10:32:59;;;;;;;5.13;1.10;;;13.30;1.00;;;;;;5073575;28;20131;-68
2021/10/06 10:35:39;;;;;;;7.10;1.77;;;13.30;1.00;;;;;;5059244;28;20045;-69
2021/10/06 10:38:16;;;;;;;5.95;1.15;;;13.40;1.00;;;;;;5074313;28;20081;-66
2021/10/06 10:40:53;;;;;;;4.38;1.13;;;13.10;1.00;;;;;;5073100;28;20071;-70
2021/10/06 10:43:23;;;;;;;3.88;1.10;;;13.40;1.00;;;;;;5074921;28;20534;-68
2021/10/06 10:46:05;;;;;;;4.28;0.90;;;13.50;1.00;;;;;;5070173;28;20048;-68
2021/10/06 10:49:03;;;;;;;2.50;0.90;;;13.80;1.00;;;;;;5077613;28;20059;-68
2021/10/06 10:51:47;;;;;;;4.55;1.20;;;13.90;1.00;;;;;;5054532;28;20044;-68
2021/10/06 10:54:34;;;;;;;5.30;0.82;;;14.00;1.00;;;;;;5068568;28;20048;-68
2021/10/06 10:57:19;;;;;;;4.28;0.90;;;14.40;1.00;;;;;;5056718;28;20043;-67
2021/10/06 10:59:48;;;;;;;1.48;0.80;;;14.50;1.00;;;;;;5055604;28;20123;-68
2021/10/06 11:02:24;;;;;;;4.38;0.90;;;14.40;1.00;;;;;;5057182;28;20147;-68
2021/10/06 11:04:59;;;;;;;4.80;1.20;;;13.90;1.00;;;;;;5050724;28;20044;-70
2021/10/06 11:07:27;;;;;;;2.33;1.08;;;14.10;1.00;;;;;;5053239;28;20041;-68
2021/10/06 11:09:57;;;;;;;4.13;0.95;;;13.80;1.00;;;;;;5058944;28;20136;-70
2021/10/06 11:12:30;;;;;;;7.43;1.23;;;13.80;1.00;;;;;;5053822;28;20051;-69
2021/10/06 11:15:36;;;;;;;6.40;1.38;;;13.60;1.00;;;;;;5053848;28;20049;-69
2021/10/06 11:18:26;;;;;;;3.25;1.00;;;13.60;1.00;;;;;;5039313;28;20068;-69
2021/10/06 11:20:59;;;;;;;2.45;1.00;;;13.60;1.00;;;;;;5058589;28;20137;-69
2021/10/06 11:23:53;;;;;;;2.80;1.00;;;13.70;1.00;;;;;;5054034;28;20128;-69
2021/10/06 11:26:33;;;;;;;2.72;0.90;;;14.20;1.00;;;;;;5055409;28;20044;-70
2021/10/06 11:29:04;;;;;;;3.20;0.80;;;14.60;1.00;;;;;;5055538;28;20044;-69
2021/10/06 11:31:34;;;;;;;5.38;1.23;;;14.60;1.00;;;;;;5057455;28;20059;-69
2021/10/06 11:34:06;;;;;;;5.40;0.77;;;14.70;1.00;;;;;;5055069;28;20144;-68
2021/10/06 11:36:36;;;;;;;5.78;0.88;;;14.60;1.00;;;;;;5052520;28;20124;-69
2021/10/06 11:39:07;;;;;;;3.47;1.15;;;14.80;1.00;;;;;;5054810;28;20144;-69
2021/10/06 11:41:37;;;;;;;6.13;0.95;;;14.80;1.00;;;;;;5063835;28;20048;-69
2021/10/06 11:44:06;;;;;;;3.03;0.90;;;14.40;1.00;;;;;;5049566;28;20131;-69
2021/10/06 11:46:34;;;;;;;4.05;0.82;;;14.90;1.00;;;;;;5053754;28;20580;-68
2021/10/06 11:49:05;;;;;;;1.70;0.68;;;15.30;1.00;;;;;;5055933;28;20119;-68
2021/10/06 11:51:46;;;;;;;2.45;0.80;;;15.60;1.00;;;;;;5069221;28;20106;-68
2021/10/06 11:54:16;;;;;;;3.50;0.80;;;15.50;1.00;;;;;;5053681;28;20056;-68
2021/10/06 11:56:49;;;;;;;3.97;0.80;;;15.60;1.00;;;;;;5068859;28;20063;-69
2021/10/06 11:59:21;;;;;;;4.55;0.90;;;15.80;1.00;;;;;;5074998;28;20058;-69
2021/10/06 12:01:53;;;;;;;3.38;0.88;;;16.00;1.00;;;;;;5070526;28;20044;-69
2021/10/06 12:04:23;;;;;;;2.78;0.75;;;15.90;1.00;;;;;;5052716;28;20048;-68
2021/10/06 12:06:59;;;;;;;4.55;1.08;;;15.60;1.00;;;;;;5041104;28;20533;-69
2021/10/06 12:09:36;;;;;;;3.30;0.85;;;15.20;1.00;;;;;;5074229;28;20044;-69
2021/10/06 12:12:09;;;;;;;2.53;0.80;;;15.40;1.00;;;;;;5069063;28;20447;-69
2021/10/06 12:14:43;;;;;;;13.15;1.10;;;14.80;1.00;;;;;;5065311;28;20044;-68
2021/10/06 12:17:15;;;;;;;2.17;0.80;;;14.40;1.00;;;;;;5064886;28;20062;-69
2021/10/06 12:19:55;;;;;;;2.33;0.68;;;14.90;1.00;;;;;;5074803;28;20054;-69
2021/10/06 12:22:31;;;;;;;1.73;0.70;;;14.80;1.00;;;;;;5074901;28;20534;-69
2021/10/06 12:25:00;;;;;;;6.05;0.88;;;14.50;1.00;;;;;;5072717;28;20445;-68
2021/10/06 12:27:30;;;;;;;3.35;1.17;;;14.20;1.00;;;;;;5071834;28;20420;-68
2021/10/06 12:30:08;;;;;;;2.50;1.08;;;13.90;1.00;;;;;;5064222;28;20049;-69
2021/10/06 12:32:42;;;;;;;3.63;1.00;;;13.80;1.00;;;;;;5075079;28;20060;-69
2021/10/06 12:35:11;;;;;;;5.22;1.20;;;13.40;1.00;;;;;;5054534;28;20040;-67
2021/10/06 12:37:52;;;;;;;4.30;0.70;;;12.80;1.00;;;;;;5057597;28;20063;-68
2021/10/06 12:40:35;;;;;;;2.83;0.90;;;12.60;3.00;;;;;;5068832;28;20139;-67
2021/10/06 12:43:05;;;;;;;2.47;1.10;;;13.00;8.00;;;;;;5072141;28;20052;-68
2021/10/06 12:45:33;;;;;;;1.73;1.10;;;13.20;8.10;;;;;;5070306;28;20162;-67
2021/10/06 12:48:04;;;;;;;3.47;1.25;;;13.50;6.40;;;;;;5072315;28;20480;-67
2021/10/06 12:50:38;;;;;;;;;;;13.50;1.00;;;;;;5072766;28;20043;-67
2021/10/06 12:53:12;;;;;;;1.33;0.65;;;13.80;4.20;;;;;;5069404;28;19946;-68
2021/10/06 12:55:40;;;;;;;1.92;0.80;;;13.80;1.00;;;;;;5053834;28;20407;-68
2021/10/06 12:58:10;;;;;;;0.77;0.50;;;14.10;1.00;;;;;;5072679;28;20480;-67
2021/10/06 13:00:38;;;;;;;1.95;0.68;;;14.20;1.00;;;;;;5071169;28;20052;-68
2021/10/06 13:03:09;;;;;;;3.60;0.80;;;14.50;1.00;;;;;;5070124;28;20037;-68
2021/10/06 13:05:42;;;;;;;2.75;0.60;;;14.50;1.00;;;;;;5071174;28;20184;-67
2021/10/06 13:08:16;;;;;;;4.07;0.70;;;14.70;1.00;;;;;;5071116;28;20102;-68
2021/10/06 13:10:45;;;;;;;2.50;0.73;;;14.90;1.00;;;;;;5057464;28;20052;-67
2021/10/06 13:13:13;;;;;;;2.80;0.70;;;15.00;1.00;;;;;;5071460;28;20114;-68
2021/10/06 13:15:41;;;;;;;3.78;0.88;;;15.20;1.00;;;;;;5069649;28;20044;-68